Terminal Aerodrome Forecast
Issued by NWS

Home | Current Version | Previous Version | Text Only | Print | Product List | Glossary On
Versions: 1 2 3 4 5 6 7 8 9 10 11 12 13 14 15 16 17 18 19 20 21 22
000
FTUS43 KTOP 202100 AAB
TAFMHK
TAF AMD
KMHK 202100Z 2021/2118 15006KT P6SM SCT015 OVC035
      TEMPO 2021/2024 BKN021
     FM210600 22005KT 4SM BR BKN007
     FM211500 24005KT P6SM SCT030=

USA.gov is the U.S. government's official web portal to all federal, state and local government web resources and services.